createdAt,value
2022-11-10T00:02:22.056Z,75.60
2022-11-10T00:05:08.481Z,75.60
2022-11-10T00:07:54.033Z,75.70
2022-11-10T00:11:01.372Z,75.70
2022-11-10T00:14:07.243Z,75.80
2022-11-10T00:17:04.498Z,75.70
2022-11-10T00:19:50.294Z,76.00
2022-11-10T00:22:37.332Z,75.90
2022-11-10T00:25:23.946Z,76.00
2022-11-10T00:28:09.492Z,76.00
2022-11-10T00:30:55.528Z,76.00
2022-11-10T00:33:43.559Z,75.90
2022-11-10T00:36:29.887Z,76.00
2022-11-10T00:39:15.549Z,76.00
2022-11-10T00:42:01.156Z,76.00
2022-11-10T00:44:46.977Z,76.00
2022-11-10T00:47:32.782Z,76.00
2022-11-10T00:50:18.496Z,76.00
2022-11-10T00:53:04.244Z,76.00
2022-11-10T00:55:49.576Z,76.10
2022-11-10T00:58:35.490Z,76.10
2022-11-10T01:01:24.603Z,76.00
2022-11-10T01:04:10.485Z,76.00
2022-11-10T01:06:56.494Z,76.00
2022-11-10T01:09:42.521Z,76.10
2022-11-10T01:12:31.921Z,76.20
2022-11-10T01:15:17.463Z,76.20
2022-11-10T01:18:03.254Z,76.40
2022-11-10T01:20:52.357Z,77.30
2022-11-10T01:23:37.906Z,76.40
2022-11-10T01:26:24.441Z,76.50
2022-11-10T01:29:09.792Z,77.40
2022-11-10T01:31:55.270Z,76.50
2022-11-10T01:34:41.062Z,76.60
2022-11-10T01:37:29.793Z,76.60
2022-11-10T01:40:15.686Z,76.60
2022-11-10T01:43:01.390Z,76.60
2022-11-10T01:46:04.419Z,76.60
2022-11-10T01:48:58.206Z,76.70
2022-11-10T01:52:03.646Z,76.60
2022-11-10T01:54:49.942Z,76.80
2022-11-10T01:57:36.649Z,76.70
2022-11-10T02:00:23.130Z,76.70
2022-11-10T02:03:21.490Z,76.80
2022-11-10T02:06:08.671Z,76.90
2022-11-10T02:08:55.770Z,76.90
2022-11-10T02:11:42.502Z,76.90
2022-11-10T02:14:31.300Z,77.10
2022-11-10T02:17:17.519Z,77.10
2022-11-10T02:20:08.045Z,77.10
2022-11-10T02:22:53.716Z,77.10
2022-11-10T02:25:39.480Z,77.10
2022-11-10T02:28:26.205Z,77.20
2022-11-10T02:31:12.775Z,77.20
2022-11-10T02:33:57.941Z,77.10
2022-11-10T02:36:43.795Z,77.30
2022-11-10T02:39:29.216Z,77.20
2022-11-10T02:42:14.793Z,77.10
2022-11-10T02:45:00.622Z,77.30
2022-11-10T02:47:46.192Z,77.20
2022-11-10T02:50:31.759Z,77.30
2022-11-10T02:53:17.448Z,77.30
2022-11-10T02:56:03.838Z,78.20
2022-11-10T02:58:49.584Z,77.40
2022-11-10T03:01:34.932Z,77.40
2022-11-10T03:04:20.303Z,77.40
2022-11-10T03:07:07.426Z,77.50
2022-11-10T03:09:52.904Z,77.60
2022-11-10T03:12:38.520Z,77.60
2022-11-10T03:15:25.292Z,77.60
2022-11-10T03:18:10.801Z,77.60
2022-11-10T03:20:56.798Z,77.60
2022-11-10T03:23:42.558Z,77.70
2022-11-10T03:26:28.056Z,77.60
2022-11-10T03:29:13.492Z,77.70
2022-11-10T03:31:59.410Z,77.70
2022-11-10T03:34:45.289Z,77.80
2022-11-10T03:37:30.817Z,77.80
2022-11-10T03:40:16.615Z,77.80
2022-11-10T03:43:02.243Z,77.90
2022-11-10T03:45:48.290Z,77.90
2022-11-10T03:48:33.997Z,78.00
2022-11-10T03:51:19.867Z,77.90
2022-11-10T03:54:05.382Z,78.00
2022-11-10T03:56:51.125Z,78.00
2022-11-10T03:59:36.602Z,78.00
2022-11-10T04:02:22.630Z,78.10
2022-11-10T04:05:27.586Z,78.10
2022-11-10T04:08:34.364Z,78.10
2022-11-10T04:11:38.607Z,78.10
2022-11-10T04:14:42.904Z,78.20
2022-11-10T04:17:28.725Z,78.20
2022-11-10T04:20:14.223Z,78.20
2022-11-10T04:23:18.324Z,78.30
2022-11-10T04:26:25.575Z,78.30
2022-11-10T04:29:12.245Z,79.30
2022-11-10T04:31:57.747Z,78.40
2022-11-10T04:34:43.078Z,78.40
2022-11-10T04:37:28.697Z,78.40
2022-11-10T04:40:14.432Z,78.50
2022-11-10T04:43:00.145Z,78.50
2022-11-10T04:45:46.128Z,78.50
2022-11-10T04:48:32.911Z,78.50
2022-11-10T04:51:19.641Z,78.50
2022-11-10T04:54:07.035Z,78.50
2022-11-10T04:56:52.827Z,78.70
2022-11-10T04:59:38.572Z,78.70
2022-11-10T05:02:24.281Z,78.70
2022-11-10T05:05:10.225Z,78.70
2022-11-10T05:07:56.252Z,78.70
2022-11-10T05:10:44.689Z,78.80
2022-11-10T05:13:30.519Z,78.80
2022-11-10T05:16:19.796Z,78.80
2022-11-10T05:19:06.972Z,78.80
2022-11-10T05:21:52.529Z,78.80
2022-11-10T05:24:38.089Z,78.70
2022-11-10T05:27:23.739Z,78.80
2022-11-10T05:30:10.520Z,78.90
2022-11-10T05:32:56.295Z,78.90
2022-11-10T05:35:41.935Z,78.90
2022-11-10T05:38:28.181Z,78.90
2022-11-10T05:41:13.670Z,78.80
2022-11-10T05:43:59.199Z,78.80
2022-11-10T05:46:45.075Z,78.90
2022-11-10T05:49:32.875Z,78.80
2022-11-10T05:52:18.699Z,78.80
2022-11-10T05:55:04.443Z,78.80
2022-11-10T05:57:51.342Z,78.90
2022-11-10T06:00:37.025Z,78.90
2022-11-10T06:03:22.990Z,78.90
2022-11-10T06:06:08.636Z,79.00
2022-11-10T06:08:56.357Z,79.00
2022-11-10T06:11:42.165Z,79.00
2022-11-10T06:14:27.951Z,79.00
2022-11-10T06:17:14.752Z,79.00
2022-11-10T06:20:00.284Z,79.00
2022-11-10T06:23:04.312Z,79.00
2022-11-10T06:25:49.950Z,79.10
2022-11-10T06:28:35.438Z,79.20
2022-11-10T06:31:21.488Z,79.20
2022-11-10T06:34:07.574Z,79.30
2022-11-10T06:36:52.966Z,79.20
2022-11-10T06:39:38.425Z,79.20
2022-11-10T06:42:23.905Z,79.20
2022-11-10T06:45:10.090Z,79.20
2022-11-10T06:48:03.515Z,79.40
2022-11-10T06:50:48.873Z,79.30
2022-11-10T06:53:34.589Z,79.30
2022-11-10T06:56:20.427Z,79.30
2022-11-10T06:59:05.744Z,79.30
2022-11-10T07:01:52.101Z,79.20
2022-11-10T07:04:37.785Z,79.30
2022-11-10T07:07:23.515Z,79.30
2022-11-10T07:10:09.370Z,79.30
2022-11-10T07:12:59.466Z,79.30
2022-11-10T07:15:44.743Z,79.30
2022-11-10T07:18:30.336Z,79.30
2022-11-10T07:21:16.005Z,79.40
2022-11-10T07:24:01.390Z,79.30
2022-11-10T07:26:46.823Z,79.30
2022-11-10T07:29:32.057Z,79.30
2022-11-10T07:32:17.576Z,79.30
2022-11-10T07:35:03.205Z,79.20
2022-11-10T07:37:48.269Z,79.30
2022-11-10T07:40:34.511Z,79.30
2022-11-10T07:43:21.395Z,79.30
2022-11-10T07:46:07.201Z,79.20
2022-11-10T07:48:52.891Z,79.20
2022-11-10T07:51:37.982Z,79.30
2022-11-10T07:54:23.318Z,79.30
2022-11-10T07:57:08.973Z,79.30
2022-11-10T07:59:57.807Z,79.40
2022-11-10T08:02:43.353Z,79.50
2022-11-10T08:05:28.509Z,79.40
2022-11-10T08:08:14.358Z,79.50
2022-11-10T08:10:59.554Z,79.40
2022-11-10T08:13:45.029Z,79.40
2022-11-10T08:16:30.465Z,79.40
2022-11-10T08:19:15.905Z,79.50
2022-11-10T08:22:02.154Z,79.60
2022-11-10T08:24:47.603Z,79.60
2022-11-10T08:27:32.876Z,79.70
2022-11-10T08:30:18.239Z,79.70
2022-11-10T08:33:05.462Z,79.60
2022-11-10T08:35:51.703Z,79.70
2022-11-10T08:38:37.541Z,79.70
2022-11-10T08:41:22.612Z,79.80
2022-11-10T08:44:10.829Z,79.80
2022-11-10T08:46:56.656Z,79.80
2022-11-10T08:49:41.952Z,79.80
2022-11-10T08:52:27.578Z,79.80
2022-11-10T08:55:12.977Z,79.80
2022-11-10T08:58:00.122Z,79.90
2022-11-10T09:00:45.314Z,79.90
2022-11-10T09:03:30.607Z,79.90
2022-11-10T09:06:16.137Z,80.10
2022-11-10T09:09:01.605Z,80.10
2022-11-10T09:11:46.896Z,80.00
2022-11-10T09:14:32.177Z,80.00
2022-11-10T09:17:17.694Z,80.00
2022-11-10T09:20:04.445Z,80.10
2022-11-10T09:22:49.989Z,80.00
2022-11-10T09:25:35.785Z,80.10
2022-11-10T09:28:22.014Z,80.00
2022-11-10T09:31:07.580Z,80.10
2022-11-10T09:33:53.018Z,80.00
2022-11-10T09:36:40.241Z,80.00
2022-11-10T09:39:26.629Z,80.10
2022-11-10T09:42:27.461Z,80.20
2022-11-10T09:45:21.045Z,80.10
2022-11-10T09:48:22.461Z,80.20
2022-11-10T09:51:25.578Z,80.10
2022-11-10T09:54:26.894Z,80.10
2022-11-10T09:57:15.404Z,80.20
2022-11-10T10:00:00.885Z,80.30
2022-11-10T10:02:52.319Z,80.30
2022-11-10T10:06:03.625Z,80.30
2022-11-10T10:08:52.047Z,80.20
2022-11-10T10:12:15.434Z,80.20
2022-11-10T10:15:15.150Z,80.30
2022-11-10T10:18:41.543Z,80.40
2022-11-10T10:21:49.349Z,80.40
2022-11-10T10:24:35.161Z,81.20
2022-11-10T10:27:23.928Z,80.30
2022-11-10T10:30:18.202Z,80.10
2022-11-10T10:33:14.674Z,80.10
2022-11-10T10:36:07.928Z,80.10
2022-11-10T10:39:04.448Z,80.10
2022-11-10T10:41:49.696Z,80.30
2022-11-10T10:44:34.790Z,80.30
2022-11-10T10:47:35.375Z,80.20
2022-11-10T10:50:32.793Z,80.20
2022-11-10T10:53:21.412Z,80.20
2022-11-10T10:56:28.515Z,80.20
2022-11-10T10:59:21.180Z,80.20
2022-11-10T11:02:26.856Z,80.30
2022-11-10T11:05:18.683Z,80.20
2022-11-10T11:08:04.740Z,80.40
2022-11-10T11:10:49.860Z,80.40
2022-11-10T11:13:35.531Z,80.30
2022-11-10T11:16:20.993Z,80.30
2022-11-10T11:19:08.936Z,80.40
2022-11-10T11:22:06.469Z,80.40
2022-11-10T11:25:15.838Z,80.40
2022-11-10T11:28:16.122Z,80.40
2022-11-10T11:31:10.546Z,80.50
2022-11-10T11:34:26.203Z,80.50
2022-11-10T11:37:32.702Z,80.50
2022-11-10T11:40:41.522Z,80.50
2022-11-10T11:43:39.838Z,80.70
2022-11-10T11:46:49.438Z,80.60
2022-11-10T11:50:08.475Z,80.60
2022-11-10T11:53:18.469Z,80.80
2022-11-10T11:56:11.557Z,80.80
2022-11-10T11:59:22.124Z,81.70
2022-11-10T12:02:42.878Z,80.90
2022-11-10T12:05:51.822Z,81.10
2022-11-10T12:08:51.725Z,81.10
2022-11-10T12:12:08.694Z,81.20
2022-11-10T12:15:01.914Z,81.10
2022-11-10T12:18:02.580Z,81.00
2022-11-10T12:21:13.216Z,80.80
2022-11-10T12:24:36.428Z,80.80
2022-11-10T12:27:30.476Z,80.90
2022-11-10T12:30:17.961Z,81.00
2022-11-10T12:33:14.533Z,81.00
2022-11-10T12:36:02.208Z,80.90
2022-11-10T12:39:18.255Z,80.90
2022-11-10T12:42:06.331Z,80.90
2022-11-10T12:45:01.850Z,81.00
2022-11-10T12:47:48.529Z,80.90
2022-11-10T12:50:47.156Z,80.80
2022-11-10T12:53:36.762Z,80.80
2022-11-10T12:56:30.435Z,81.00
2022-11-10T12:59:21.791Z,80.90
2022-11-10T13:02:40.037Z,80.90
2022-11-10T13:05:30.570Z,80.80
2022-11-10T13:08:35.079Z,80.70
2022-11-10T13:11:35.869Z,80.70
2022-11-10T13:14:31.026Z,80.80
2022-11-10T13:17:28.538Z,80.80
2022-11-10T13:20:38.960Z,80.80
2022-11-10T13:23:37.724Z,80.60
2022-11-10T13:26:48.563Z,80.60
2022-11-10T13:29:53.999Z,80.50
2022-11-10T13:32:39.603Z,80.40
2022-11-10T13:35:30.927Z,80.40
2022-11-10T13:38:34.648Z,80.20
2022-11-10T13:41:25.715Z,80.20
2022-11-10T13:44:48.325Z,80.30
2022-11-10T13:47:57.758Z,80.10
2022-11-10T13:51:13.161Z,80.10
2022-11-10T13:54:22.467Z,80.10
2022-11-10T13:57:37.302Z,80.20
2022-11-10T14:00:33.116Z,80.00
2022-11-10T14:03:46.932Z,80.10
2022-11-10T14:06:43.477Z,79.90
2022-11-10T14:09:34.957Z,80.00
2022-11-10T14:12:27.924Z,80.00
2022-11-10T14:15:19.004Z,79.90
2022-11-10T14:18:21.176Z,79.80
2022-11-10T14:21:13.466Z,80.60
2022-11-10T14:24:09.966Z,79.70
2022-11-10T14:26:59.649Z,79.60
2022-11-10T14:29:44.771Z,79.50
2022-11-10T14:32:30.578Z,79.50
2022-11-10T14:35:23.005Z,79.40
2022-11-10T14:38:22.266Z,79.40
2022-11-10T14:41:21.600Z,79.20
2022-11-10T14:44:11.627Z,79.20
2022-11-10T14:47:12.886Z,80.10
2022-11-10T14:50:34.524Z,79.20
2022-11-10T14:53:31.557Z,79.00
2022-11-10T14:56:27.863Z,79.10
2022-11-10T14:59:14.656Z,79.10
2022-11-10T15:02:01.515Z,78.90
2022-11-10T15:04:49.924Z,78.90
2022-11-10T15:07:35.230Z,78.90
2022-11-10T15:10:24.244Z,79.10
2022-11-10T15:13:12.444Z,78.90
2022-11-10T15:16:20.801Z,78.80
2022-11-10T15:19:26.814Z,78.70
2022-11-10T15:22:33.739Z,78.70
2022-11-10T15:25:20.235Z,78.70
2022-11-10T15:28:21.568Z,78.80
2022-11-10T15:31:10.933Z,79.00
2022-11-10T15:33:59.872Z,78.90
2022-11-10T15:36:45.330Z,78.90
2022-11-10T15:39:30.821Z,78.80
2022-11-10T15:42:18.870Z,78.80
2022-11-10T15:45:04.958Z,78.90
2022-11-10T15:47:50.312Z,78.80
2022-11-10T15:50:36.048Z,78.70
2022-11-10T15:53:38.425Z,78.80
2022-11-10T15:56:25.180Z,78.70
2022-11-10T15:59:10.860Z,78.70
2022-11-10T16:01:57.659Z,78.70
2022-11-10T16:04:43.240Z,78.80
2022-11-10T16:07:28.619Z,78.70
2022-11-10T16:10:14.204Z,78.70
2022-11-10T16:12:59.807Z,78.70
2022-11-10T16:15:45.485Z,78.60
2022-11-10T16:18:31.155Z,78.70
2022-11-10T16:21:22.307Z,78.70
2022-11-10T16:24:07.604Z,78.60
2022-11-10T16:26:53.313Z,78.50
2022-11-10T16:29:39.362Z,78.60
2022-11-10T16:32:24.445Z,78.60
2022-11-10T16:35:13.833Z,78.60
2022-11-10T16:37:59.150Z,78.60
2022-11-10T16:40:45.475Z,78.60
2022-11-10T16:43:31.625Z,78.60
2022-11-10T16:46:20.311Z,78.70
2022-11-10T16:49:15.047Z,78.70
2022-11-10T16:52:11.197Z,78.80
2022-11-10T16:54:56.691Z,78.70
2022-11-10T16:57:42.160Z,78.80
2022-11-10T17:00:27.526Z,78.80
2022-11-10T17:03:26.223Z,78.80
2022-11-10T17:06:15.979Z,78.70
2022-11-10T17:09:23.145Z,78.80
2022-11-10T17:12:11.189Z,78.70
2022-11-10T17:14:56.590Z,78.70
2022-11-10T17:17:44.889Z,79.00
2022-11-10T17:20:35.172Z,78.90
2022-11-10T17:23:24.157Z,78.90
2022-11-10T17:26:11.982Z,78.80
2022-11-10T17:28:57.394Z,78.80
2022-11-10T17:31:42.917Z,78.80
2022-11-10T17:34:27.963Z,78.80
2022-11-10T17:37:13.829Z,78.90
2022-11-10T17:40:01.833Z,79.00
2022-11-10T17:42:48.565Z,78.90
2022-11-10T17:45:33.957Z,79.00
2022-11-10T17:48:19.601Z,78.90
2022-11-10T17:51:06.051Z,79.00
2022-11-10T17:53:53.352Z,79.00
2022-11-10T17:56:38.793Z,79.10
2022-11-10T17:59:24.384Z,79.10
2022-11-10T18:02:11.524Z,79.10
2022-11-10T18:04:56.751Z,79.20
2022-11-10T18:07:43.112Z,79.20
2022-11-10T18:10:28.754Z,79.20
2022-11-10T18:13:14.234Z,79.30
2022-11-10T18:16:00.540Z,79.30
2022-11-10T18:18:45.757Z,79.30
2022-11-10T18:21:31.049Z,79.40
2022-11-10T18:24:16.523Z,80.30
2022-11-10T18:27:01.479Z,79.50
2022-11-10T18:29:48.615Z,79.40
2022-11-10T18:32:33.957Z,79.40
2022-11-10T18:35:19.303Z,79.40
2022-11-10T18:38:06.004Z,79.50
2022-11-10T18:40:51.345Z,79.50
2022-11-10T18:43:36.878Z,79.50
2022-11-10T18:46:22.314Z,79.70
2022-11-10T18:49:08.001Z,79.70
2022-11-10T18:51:53.242Z,79.70
2022-11-10T18:54:38.567Z,79.60
2022-11-10T18:57:23.957Z,79.70
2022-11-10T19:00:11.512Z,79.60
2022-11-10T19:02:56.590Z,79.60
2022-11-10T19:05:42.609Z,79.60
2022-11-10T19:08:28.566Z,79.60
2022-11-10T19:11:16.812Z,79.60
2022-11-10T19:14:02.362Z,79.70
2022-11-10T19:16:47.820Z,79.70
2022-11-10T19:19:33.315Z,79.70
2022-11-10T19:22:18.775Z,79.70
2022-11-10T19:25:08.812Z,79.70
2022-11-10T19:27:55.521Z,79.70
2022-11-10T19:30:40.809Z,79.80
2022-11-10T19:33:28.772Z,79.70
2022-11-10T19:36:17.242Z,79.80
2022-11-10T19:39:03.491Z,79.80
2022-11-10T19:41:48.997Z,79.80
2022-11-10T19:44:35.142Z,79.90
2022-11-10T19:47:20.881Z,79.90
2022-11-10T19:50:06.362Z,80.00
2022-11-10T19:52:51.646Z,79.90
2022-11-10T19:55:37.180Z,79.80
2022-11-10T19:58:22.561Z,79.90
2022-11-10T20:01:10.982Z,80.00
2022-11-10T20:03:56.655Z,80.00
2022-11-10T20:06:42.241Z,80.00
2022-11-10T20:09:27.749Z,80.00
2022-11-10T20:12:13.168Z,80.00
2022-11-10T20:14:59.529Z,80.10
2022-11-10T20:17:45.517Z,80.20
2022-11-10T20:20:34.649Z,80.20
2022-11-10T20:23:20.463Z,80.30
2022-11-10T20:26:07.772Z,80.20
2022-11-10T20:28:53.364Z,80.20
2022-11-10T20:31:39.327Z,80.30
2022-11-10T20:34:24.465Z,80.30
2022-11-10T20:37:09.916Z,80.30
2022-11-10T20:39:56.657Z,81.10
2022-11-10T20:42:42.894Z,80.40
2022-11-10T20:45:29.389Z,80.40
2022-11-10T20:48:15.738Z,80.30
2022-11-10T20:51:01.628Z,80.30
2022-11-10T20:53:48.026Z,80.30
2022-11-10T20:56:33.713Z,80.30
2022-11-10T20:59:19.426Z,80.30
2022-11-10T21:02:06.693Z,80.40
2022-11-10T21:04:54.936Z,80.40
2022-11-10T21:07:41.105Z,80.30
2022-11-10T21:10:26.497Z,80.40
2022-11-10T21:13:12.208Z,80.40
2022-11-10T21:15:59.750Z,80.30
2022-11-10T21:18:45.518Z,80.40
2022-11-10T21:21:34.411Z,80.20
2022-11-10T21:24:20.611Z,80.30
2022-11-10T21:27:06.269Z,80.30
2022-11-10T21:29:52.779Z,80.40
2022-11-10T21:32:38.193Z,80.40
2022-11-10T21:35:24.155Z,80.30
2022-11-10T21:38:14.846Z,80.40
2022-11-10T21:41:00.364Z,80.30
2022-11-10T21:43:46.002Z,80.40
2022-11-10T21:46:31.692Z,81.10
2022-11-10T21:49:17.047Z,80.30
2022-11-10T21:52:03.010Z,80.30
2022-11-10T21:54:48.542Z,80.30
2022-11-10T21:57:34.120Z,80.30
2022-11-10T22:00:19.748Z,80.30
2022-11-10T22:03:05.643Z,80.40
2022-11-10T22:05:51.403Z,80.40
2022-11-10T22:08:38.281Z,80.40
2022-11-10T22:11:41.976Z,80.40
2022-11-10T22:14:46.046Z,80.40
2022-11-10T22:17:50.351Z,80.40
2022-11-10T22:20:35.743Z,80.50
2022-11-10T22:23:41.240Z,81.30
2022-11-10T22:30:04.831Z,80.50
2022-11-10T22:32:50.307Z,80.50
2022-11-10T22:35:44.990Z,80.50
2022-11-10T22:38:34.913Z,80.50
2022-11-10T22:41:39.201Z,80.50
2022-11-10T22:44:25.352Z,80.60
2022-11-10T22:47:10.882Z,80.60
2022-11-10T22:49:56.425Z,80.60
2022-11-10T22:52:42.034Z,81.50
2022-11-10T22:55:27.641Z,80.60
2022-11-10T22:58:13.382Z,80.60
2022-11-10T23:01:07.661Z,80.60
2022-11-10T23:03:53.162Z,80.60
2022-11-10T23:06:38.746Z,80.70
2022-11-10T23:09:24.523Z,80.60
2022-11-10T23:12:09.702Z,80.70
2022-11-10T23:14:55.140Z,80.70
2022-11-10T23:17:40.752Z,80.70
2022-11-10T23:20:26.266Z,80.60
2022-11-10T23:23:11.708Z,80.70
2022-11-10T23:25:59.195Z,80.70
2022-11-10T23:28:45.221Z,80.70
2022-11-10T23:31:31.005Z,80.70
2022-11-10T23:34:16.692Z,80.70
2022-11-10T23:37:02.472Z,80.70
2022-11-10T23:39:47.906Z,80.70
2022-11-10T23:42:33.411Z,80.60
2022-11-10T23:45:18.986Z,80.60
2022-11-10T23:48:06.956Z,80.70
2022-11-10T23:50:52.535Z,80.70
2022-11-10T23:53:38.620Z,80.70
2022-11-10T23:56:24.145Z,80.80
2022-11-10T23:59:09.816Z,80.70
